Time;durP1;ratioP1;P1;durP2;ratioP2;P2;SDS_P1;SDS_P2;PMS_P1;PMS_P2;Temp;Humidity;BMP_temperature;BMP_pressure;BME280_temperature;BME280_humidity;BME280_pressure;Samples;Min_cycle;Max_cycle;Signal;HPM_P1;HPM_P2
2022/05/30 00:01:40;;;;;;;10.88;4.63;;;14.10;99.90;;;14.38;64.49;101322.97;4840791;29;20060;-67
2022/05/30 00:04:08;;;;;;;15.00;4.68;;;14.00;99.90;;;14.26;66.12;101312.44;4841050;29;20077;-67
2022/05/30 00:06:36;;;;;;;10.88;4.43;;;13.80;99.90;;;14.07;67.87;101306.44;4826045;29;20081;-67
2022/05/30 00:09:08;;;;;;;10.60;3.92;;;13.70;99.90;;;13.85;69.01;101296.97;4844632;29;20045;-67
2022/05/30 00:11:36;;;;;;;12.30;4.75;;;13.50;99.90;;;13.64;69.77;101301.63;4844606;29;20049;-67
2022/05/30 00:14:05;;;;;;;10.93;4.70;;;13.20;99.90;;;13.54;70.17;101295.50;4844648;29;20054;-67
2022/05/30 00:16:34;;;;;;;15.93;4.68;;;13.20;99.90;;;13.46;69.91;101295.59;4844583;29;20128;-67
2022/05/30 00:19:03;;;;;;;9.35;4.35;;;13.00;99.90;;;13.06;70.21;101185.28;4844544;29;20057;-67
2022/05/30 00:21:31;;;;;;;10.90;4.43;;;13.10;99.90;;;13.66;70.32;101294.50;4844546;29;20090;-66
2022/05/30 00:23:59;;;;;;;12.43;4.57;;;13.20;99.90;;;13.56;69.59;101291.06;4844182;29;20051;-66
2022/05/30 00:26:29;;;;;;;18.45;5.53;;;13.10;99.90;;;13.54;68.87;101298.16;4844502;29;20068;-66
2022/05/30 00:28:57;;;;;;;18.65;5.00;;;13.20;99.90;;;13.66;68.01;101294.50;4844529;29;20054;-66
2022/05/30 00:31:25;;;;;;;11.38;4.97;;;13.20;99.90;;;13.68;67.23;101290.94;4827804;29;20157;-66
2022/05/30 00:33:54;;;;;;;14.55;4.80;;;13.20;99.90;;;13.72;66.23;101289.13;4827722;29;20053;-66
2022/05/30 00:36:22;;;;;;;12.07;5.03;;;13.30;99.90;;;13.73;66.23;101294.44;4827676;29;20145;-66
2022/05/30 00:38:51;;;;;;;9.13;4.80;;;13.30;99.90;;;13.79;66.23;101291.69;4843965;29;20144;-66
2022/05/30 00:41:19;;;;;;;12.13;4.75;;;13.40;99.90;;;13.88;65.99;101286.28;4844208;29;20046;-66
2022/05/30 00:43:49;;;;;;;16.95;5.20;;;13.50;99.90;;;13.94;65.81;101291.53;4844174;29;20077;-66
2022/05/30 00:46:18;;;;;;;17.65;4.60;;;13.60;99.90;;;13.96;66.12;101286.19;4844148;29;20445;-66
2022/05/30 00:48:52;;;;;;;14.05;5.18;;;13.60;99.90;;;13.81;67.67;101289.91;4827240;29;20050;-66
2022/05/30 00:51:25;;;;;;;10.52;4.60;;;13.50;99.90;;;13.81;67.79;101289.03;4844256;29;20460;-66
2022/05/30 00:53:56;;;;;;;12.13;4.63;;;13.40;99.90;;;13.97;68.61;101285.31;4844715;29;20065;-66
2022/05/30 00:56:30;;;;;;;10.57;5.28;;;13.60;99.90;;;13.90;69.59;101279.16;4827166;29;20058;-66
2022/05/30 00:59:01;;;;;;;11.80;4.82;;;13.60;99.90;;;13.99;70.08;101286.16;4843902;29;20115;-66
2022/05/30 01:01:33;;;;;;;11.23;5.05;;;13.60;99.90;;;13.82;70.42;101272.19;4827156;29;20054;-66
2022/05/30 01:06:52;;;;;;;15.63;5.45;;;13.50;99.90;;;13.90;68.66;101281.81;4843618;29;20564;-66
2022/05/30 01:09:24;;;;;;;13.80;5.13;;;13.50;99.90;;;14.01;68.19;101279.94;4826923;29;20073;-66
2022/05/30 01:11:58;;;;;;;13.50;5.65;;;13.60;99.90;;;13.98;68.71;101287.94;4826593;29;20089;-66
2022/05/30 01:14:30;;;;;;;13.98;5.38;;;13.60;99.90;;;13.96;68.71;101278.19;4826928;29;20053;-66
2022/05/30 01:17:02;;;;;;;13.95;5.57;;;13.60;99.90;;;13.89;68.68;101273.88;4826687;29;20065;-66
2022/05/30 01:19:53;;;;;;;11.13;5.00;;;13.50;99.90;;;14.04;68.89;101277.22;4826202;29;20053;-66
2022/05/30 01:23:12;;;;;;;12.48;4.60;;;13.70;99.90;;;13.86;68.57;101281.91;4842146;29;20123;-66
2022/05/30 01:26:14;;;;;;;17.15;5.75;;;13.50;99.90;;;13.92;68.67;101272.03;4834567;29;20407;-66
2022/05/30 01:28:58;;;;;;;10.60;5.00;;;13.50;99.90;;;13.85;68.28;101264.16;4841796;29;20110;-66
2022/05/30 01:31:27;;;;;;;19.58;5.32;;;13.50;99.90;;;13.87;67.11;101267.69;4841701;29;20558;-66
2022/05/30 01:33:57;;;;;;;13.45;5.22;;;13.50;99.90;;;13.90;66.53;101268.53;4826402;29;20106;-66
2022/05/30 01:36:27;;;;;;;12.93;5.00;;;13.50;99.90;;;13.84;66.83;101263.28;4842159;29;20186;-66
2022/05/30 01:38:56;;;;;;;11.70;5.10;;;13.40;99.90;;;13.88;68.04;101259.69;4843011;29;20093;-66
2022/05/30 01:41:39;;;;;;;12.00;5.35;;;13.50;99.90;;;13.83;68.25;101250.00;4826360;29;20160;-66
2022/05/30 01:44:10;;;;;;;12.45;5.38;;;13.50;99.90;;;13.89;68.67;101255.25;4826302;29;20050;-66
2022/05/30 01:46:38;;;;;;;11.13;5.55;;;13.50;99.90;;;14.02;67.69;101262.19;4826301;29;20054;-66
2022/05/30 01:49:08;;;;;;;9.52;5.18;;;13.60;99.90;;;14.08;66.84;101256.78;4826165;29;20069;-66
2022/05/30 01:51:36;;;;;;;13.90;5.00;;;13.70;99.90;;;14.09;66.82;101253.25;4842678;29;20045;-66
2022/05/30 01:54:07;;;;;;;11.82;5.20;;;13.70;99.90;;;14.05;66.85;101246.19;4826144;29;20041;-66
2022/05/30 01:56:44;;;;;;;13.65;5.75;;;13.70;99.90;;;13.89;67.64;101249.94;4842496;29;20049;-66
2022/05/30 01:59:14;;;;;;;10.57;5.05;;;13.60;99.90;;;13.97;68.14;101256.03;4826385;29;20053;-66
2022/05/30 02:02:03;;;;;;;11.05;5.07;;;13.60;99.90;;;13.83;68.29;101244.69;4842090;29;20046;-66
2022/05/30 02:04:33;;;;;;;7.38;4.90;;;13.50;99.90;;;13.90;69.05;101247.25;4825950;29;20543;-66
2022/05/30 02:07:01;;;;;;;12.60;5.03;;;13.50;99.90;;;13.88;69.23;101248.19;4826027;29;20058;-66
2022/05/30 02:09:29;;;;;;;9.70;5.15;;;13.50;99.90;;;13.92;69.52;101253.44;4841051;29;20061;-66
2022/05/30 02:11:58;;;;;;;11.73;5.28;;;13.50;99.90;;;13.82;69.19;101242.94;4840927;29;20057;-66
2022/05/30 02:14:37;;;;;;;15.40;5.50;;;13.50;99.90;;;13.72;68.99;101249.25;4825473;29;20496;-66
2022/05/30 02:17:06;;;;;;;15.38;5.50;;;13.30;99.90;;;13.56;69.96;101249.41;4841005;29;20050;-66
2022/05/30 02:19:42;;;;;;;12.60;5.50;;;13.20;99.90;;;13.67;70.31;101251.06;4826026;29;20084;-66
2022/05/30 02:22:15;;;;;;;8.20;5.07;;;13.30;99.90;;;13.57;70.70;101248.50;4840878;29;20114;-66
2022/05/30 02:24:44;;;;;;;12.05;5.63;;;13.20;99.90;;;13.66;70.88;101242.22;4842248;29;20046;-66
2022/05/30 02:27:14;;;;;;;12.18;5.63;;;13.20;99.90;;;13.71;71.26;101244.81;4825789;29;20152;-66
2022/05/30 02:29:45;;;;;;;9.18;5.07;;;13.30;99.90;;;13.77;71.48;101239.44;4840382;29;20072;-66
2022/05/30 02:32:17;;;;;;;10.70;5.07;;;13.30;99.90;;;13.80;71.56;101237.59;4841884;29;20128;-66
2022/05/30 02:37:32;;;;;;;12.05;5.20;;;13.40;99.90;;;13.86;71.40;101234.03;4825408;29;20073;-66
2022/05/30 02:40:19;;;;;;;9.23;5.00;;;13.50;99.90;;;13.98;71.75;101239.16;4841942;29;20393;-66
2022/05/30 02:43:13;;;;;;;10.70;5.25;;;13.60;99.90;;;13.93;71.15;101236.59;4841444;29;20114;-66
2022/05/30 02:45:44;;;;;;;20.92;5.50;;;13.50;99.90;;;13.75;70.37;101234.13;4825368;29;20064;-66
2022/05/30 02:48:13;;;;;;;14.75;5.65;;;13.40;99.90;;;13.53;69.93;101233.50;4825467;29;20401;-66
2022/05/30 02:50:44;;;;;;;18.08;5.50;;;13.30;99.90;;;13.46;69.98;101230.91;4825439;29;20132;-66
2022/05/30 02:53:14;;;;;;;10.60;5.88;;;13.10;99.90;;;13.48;69.86;101234.44;4825496;29;20057;-66
2022/05/30 02:56:11;;;;;;;9.63;5.00;;;13.10;99.90;;;13.42;69.69;101232.72;4826532;29;20066;-66
2022/05/30 02:58:39;;;;;;;10.43;5.00;;;13.10;99.90;;;13.51;69.75;101235.28;4825196;29;20069;-66
2022/05/30 03:01:09;;;;;;;12.45;5.03;;;13.10;99.90;;;13.44;70.00;101230.06;4825303;29;20552;-66
2022/05/30 03:03:39;;;;;;;10.55;4.90;;;13.10;99.90;;;13.48;70.23;101237.97;4840505;29;20068;-66
2022/05/30 03:06:07;;;;;;;12.15;5.43;;;13.10;99.90;;;13.67;70.29;101240.44;4841920;29;20050;-66
2022/05/30 03:08:36;;;;;;;12.85;5.95;;;13.20;99.90;;;13.75;70.55;101242.13;4840331;29;20565;-66
2022/05/30 03:11:07;;;;;;;8.15;4.93;;;13.30;99.90;;;13.66;70.53;101244.00;4841842;29;20062;-66
2022/05/30 03:13:35;;;;;;;10.70;5.32;;;13.20;99.90;;;13.63;71.10;101230.75;4825535;29;20053;-66
2022/05/30 03:16:05;;;;;;;13.68;6.05;;;13.20;99.90;;;13.72;71.19;101235.97;4840693;29;20453;-66
2022/05/30 03:18:38;;;;;;;16.52;5.47;;;13.30;99.90;;;13.69;70.48;101233.31;4825398;29;20058;-66
2022/05/30 03:21:07;;;;;;;17.43;5.20;;;13.30;99.90;;;13.73;69.90;101235.03;4825303;29;20145;-66
2022/05/30 03:23:36;;;;;;;7.63;4.95;;;13.30;99.90;;;13.74;69.91;101226.19;4825647;29;20393;-66
2022/05/30 03:26:09;;;;;;;12.23;5.38;;;13.40;99.90;;;13.70;71.33;101238.63;4825699;29;20085;-66
2022/05/30 03:28:38;;;;;;;16.67;5.47;;;13.30;99.90;;;13.82;70.93;101240.28;4841646;29;20088;-66
2022/05/30 03:31:08;;;;;;;8.57;5.10;;;13.30;99.90;;;13.77;70.87;101239.44;4840183;29;20144;-66
2022/05/30 03:33:42;;;;;;;14.15;4.80;;;13.40;99.90;;;13.86;70.64;101242.00;4840329;29;20493;-66
2022/05/30 03:36:20;;;;;;;9.88;4.85;;;13.40;99.90;;;13.92;69.98;101236.59;4825152;29;20144;-66
2022/05/30 03:39:07;;;;;;;8.82;4.40;;;13.50;99.90;;;13.92;69.37;101241.91;4841578;29;20146;-66
2022/05/30 03:41:45;;;;;;;11.52;4.70;;;13.50;99.90;;;13.98;69.06;101239.16;4843742;29;20106;-66
2022/05/30 03:44:34;;;;;;;11.80;4.40;;;13.50;99.90;;;13.95;68.96;101244.53;4829095;29;20050;-66
2022/05/30 03:47:02;;;;;;;7.13;4.18;;;13.60;99.90;;;13.92;68.98;101242.78;4845762;29;20504;-66
2022/05/30 03:49:32;;;;;;;7.90;4.28;;;13.50;99.90;;;13.86;69.01;101245.53;4843742;29;20141;-66
2022/05/30 03:52:01;;;;;;;10.80;4.87;;;13.50;99.90;;;13.63;69.18;101217.47;4843427;29;20050;-66
2022/05/30 03:54:30;;;;;;;9.23;4.13;;;13.40;99.90;;;13.78;69.26;101249.19;4828491;29;20065;-66
2022/05/30 03:56:59;;;;;;;11.30;4.68;;;13.40;99.90;;;13.72;69.40;101242.16;4827940;29;20065;-66
2022/05/30 03:59:29;;;;;;;7.55;4.40;;;13.40;99.90;;;13.62;69.20;101244.94;4828100;29;20119;-66
2022/05/30 04:02:01;;;;;;;10.68;4.30;;;13.30;99.90;;;13.48;69.40;101239.75;4828037;29;20065;-66
2022/05/30 04:04:31;;;;;;;10.57;4.57;;;13.20;99.90;;;13.44;69.67;101249.53;4844721;29;20049;-66
2022/05/30 04:07:01;;;;;;;8.65;4.32;;;13.10;99.90;;;13.43;69.55;101247.75;4843372;29;20481;-66
2022/05/30 04:09:32;;;;;;;10.45;4.60;;;13.10;99.90;;;13.41;69.85;101233.59;4827927;29;20064;-69
2022/05/30 04:12:21;;;;;;;9.63;4.43;;;13.10;99.90;;;13.35;70.04;101236.34;4844683;29;20508;-64
2022/05/30 04:15:11;;;;;;;10.68;4.85;;;13.00;99.90;;;13.33;70.34;101232.84;4844579;29;20049;-65
2022/05/30 04:17:39;;;;;;;12.35;4.40;;;13.00;99.90;;;13.35;70.50;101236.34;4827629;29;20406;-65
2022/05/30 04:20:11;;;;;;;10.30;4.63;;;13.00;99.90;;;13.34;70.50;101226.59;4827503;29;20082;-64
2022/05/30 04:22:39;;;;;;;10.25;4.40;;;12.90;99.90;;;13.22;70.59;101199.31;4844248;29;20054;-66
2022/05/30 04:25:23;;;;;;;8.70;4.60;;;13.00;99.90;;;13.47;70.80;101222.91;4844288;29;20149;-65
2022/05/30 04:27:51;;;;;;;8.20;4.28;;;13.10;99.90;;;13.51;70.94;101227.31;4844191;29;20061;-65
2022/05/30 04:30:21;;;;;;;12.60;5.20;;;13.10;99.90;;;13.58;70.99;101228.13;4827472;29;20082;-65
2022/05/30 04:32:51;;;;;;;7.80;4.55;;;13.20;99.90;;;13.09;70.78;101152.47;4842797;29;20060;-65
2022/05/30 04:35:22;;;;;;;10.18;4.90;;;13.20;99.90;;;13.51;71.38;101235.28;4827343;29;20202;-65
2022/05/30 04:37:51;;;;;;;5.20;3.95;;;13.20;99.90;;;13.77;71.63;101229.69;4844165;29;20081;-65
2022/05/30 04:40:37;;;;;;;8.70;4.18;;;13.40;99.90;;;13.72;72.06;101225.31;4827290;29;20065;-65
2022/05/30 04:43:40;;;;;;;8.65;4.50;;;13.40;99.90;;;13.76;71.89;101227.06;4804910;29;20100;-65
2022/05/30 04:46:27;;;;;;;8.82;4.25;;;13.40;99.90;;;13.63;71.24;101233.41;4841193;29;20072;-65
2022/05/30 04:48:56;;;;;;;9.07;4.38;;;13.30;99.90;;;13.54;71.58;101227.28;4827183;29;20050;-65
2022/05/30 04:51:32;;;;;;;10.70;4.80;;;13.20;99.90;;;13.58;71.30;101236.09;4843663;29;20042;-65
2022/05/30 04:54:00;;;;;;;10.65;4.93;;;13.20;99.90;;;13.65;71.75;101236.91;4827392;29;20054;-65
2022/05/30 04:56:49;;;;;;;10.93;4.30;;;13.20;99.90;;;13.63;71.80;101230.75;4836549;29;20057;-65
2022/05/30 04:59:25;;;;;;;9.27;4.53;;;13.20;99.90;;;13.62;71.82;101231.63;4826732;29;20054;-65
2022/05/30 05:02:01;;;;;;;9.07;4.80;;;13.20;99.90;;;13.67;71.22;101222.72;4826874;29;20058;-65
2022/05/30 05:04:31;;;;;;;7.15;4.15;;;13.30;99.90;;;13.91;71.13;101234.84;4826677;29;20046;-65
2022/05/30 05:07:03;;;;;;;8.98;4.50;;;13.40;99.90;;;13.80;70.70;101216.34;4826878;29;20122;-65
2022/05/30 05:09:41;;;;;;;8.00;4.03;;;13.50;99.90;;;13.96;70.08;101240.97;4826913;29;20245;-65
2022/05/30 05:12:38;;;;;;;11.35;5.38;;;13.60;99.90;;;14.14;70.45;101240.75;4842945;29;20164;-65
2022/05/30 05:15:25;;;;;;;7.60;4.53;;;13.70;99.90;;;14.25;70.07;101239.72;4843616;29;20463;-65
2022/05/30 05:18:26;;;;;;;9.82;4.78;;;13.80;99.90;;;14.31;69.20;101250.31;4824977;29;20144;-65
2022/05/30 05:20:54;;;;;;;9.05;4.47;;;13.90;99.90;;;14.41;68.59;101243.06;4841917;29;20061;-65
2022/05/30 05:23:24;;;;;;;9.80;4.28;;;14.00;99.90;;;14.41;68.78;101248.41;4841845;29;20050;-65
2022/05/30 05:26:01;;;;;;;7.75;4.05;;;14.00;99.90;;;14.53;68.31;101242.00;4826541;29;20053;-66
2022/05/30 05:28:34;;;;;;;8.30;4.50;;;14.20;99.90;;;14.62;67.53;101242.75;4841700;29;20064;-65
2022/05/30 05:31:02;;;;;;;8.32;3.90;;;14.30;99.90;;;14.76;67.14;101240.78;4826482;29;20058;-65
2022/05/30 05:33:31;;;;;;;9.98;3.85;;;14.40;99.90;;;14.82;66.40;101243.34;4842913;29;20053;-66
2022/05/30 05:35:59;;;;;;;7.22;4.00;;;14.50;99.90;;;14.91;66.03;101245.84;4842897;29;20050;-65
2022/05/30 05:38:29;;;;;;;6.55;4.07;;;14.60;99.90;;;14.95;65.62;101250.22;4842729;29;20042;-65
2022/05/30 05:41:09;;;;;;;11.35;3.63;;;14.60;99.90;;;14.96;66.10;101246.66;4826371;29;20057;-66
2022/05/30 05:43:58;;;;;;;9.43;4.00;;;14.60;99.90;;;15.21;65.02;101249.81;4842488;29;20076;-66
2022/05/30 05:46:31;;;;;;;8.60;3.88;;;14.80;99.90;;;15.23;63.61;101253.31;4826561;29;20443;-66
2022/05/30 05:49:01;;;;;;;8.95;4.03;;;14.90;99.90;;;15.33;63.81;101252.22;4842847;29;20418;-67
2022/05/30 05:51:29;;;;;;;8.95;4.05;;;15.00;99.90;;;15.45;62.92;101249.38;4841517;29;20461;-66
2022/05/30 05:54:07;;;;;;;8.55;3.78;;;15.10;99.90;;;15.54;62.54;101256.34;4826433;29;20118;-66
2022/05/30 05:56:37;;;;;;;7.75;3.70;;;15.20;99.90;;;15.62;62.34;101260.63;4826192;29;20106;-66
2022/05/30 05:59:11;;;;;;;9.25;4.20;;;15.30;99.90;;;15.68;63.15;101263.16;4841562;29;20565;-66
2022/05/30 06:01:40;;;;;;;6.20;3.83;;;15.30;99.90;;;15.81;62.89;101261.16;4826153;29;20058;-66
2022/05/30 06:04:11;;;;;;;5.80;3.78;;;15.50;99.90;;;15.92;62.47;101291.16;4840358;29;20054;-66
2022/05/30 06:07:15;;;;;;;6.07;3.78;;;15.50;99.90;;;15.95;61.79;101270.63;4832748;29;20473;-66
2022/05/30 06:10:01;;;;;;;10.52;4.32;;;15.60;99.90;;;16.01;60.56;101266.97;4841393;29;20161;-66
2022/05/30 06:12:37;;;;;;;8.70;4.50;;;15.70;99.90;;;16.10;60.01;101264.97;4841278;29;20046;-67
2022/05/30 06:15:06;;;;;;;10.18;4.63;;;15.80;99.90;;;16.18;60.17;101265.72;4841317;29;20064;-66
2022/05/30 06:17:46;;;;;;;7.65;3.83;;;15.80;99.90;;;16.14;59.11;101265.81;4826380;29;20130;-67
2022/05/30 06:20:18;;;;;;;8.07;3.58;;;15.80;99.90;;;16.15;59.50;101243.53;4841471;29;20050;-67
2022/05/30 06:22:47;;;;;;;9.15;3.75;;;15.90;99.90;;;16.10;57.74;101264.13;4841521;29;20054;-66
2022/05/30 06:25:55;;;;;;;6.63;3.53;;;15.80;99.90;;;16.09;55.55;101259.69;4832347;29;20058;-66
2022/05/30 06:28:40;;;;;;;7.50;3.65;;;15.80;99.90;;;16.13;55.59;101259.59;4840987;29;20060;-67
2022/05/30 06:31:13;;;;;;;4.53;4.13;;;15.80;99.90;;;15.63;56.33;101266.84;4825929;29;20058;-66
2022/05/30 06:33:42;;;;;;;7.13;3.50;;;15.40;99.90;;;15.65;55.83;101265.91;4825914;29;20082;-66
2022/05/30 06:36:18;;;;;;;5.63;3.20;;;15.30;99.90;;;15.59;55.79;101260.69;4825959;29;20393;-67
2022/05/30 06:38:47;;;;;;;7.07;3.40;;;15.20;99.90;;;15.60;55.63;101264.25;4825824;29;20051;-67
2022/05/30 06:41:30;;;;;;;6.18;3.50;;;15.30;99.90;;;15.37;56.80;101273.47;4841168;29;20068;-66
2022/05/30 06:44:07;;;;;;;7.13;3.20;;;15.10;99.90;;;15.47;56.48;101268.91;4841164;29;20145;-66
2022/05/30 06:46:54;;;;;;;9.50;3.57;;;15.10;99.90;;;15.78;55.40;101266.53;4842165;29;20424;-67
2022/05/30 06:49:40;;;;;;;6.43;3.63;;;15.40;99.90;;;15.87;54.56;101259.22;4841931;29;20144;-67
2022/05/30 06:52:13;;;;;;;8.45;3.55;;;15.60;99.90;;;16.04;54.57;101267.81;4840539;29;20114;-67
2022/05/30 06:54:41;;;;;;;5.88;3.22;;;15.70;99.90;;;16.10;53.50;101274.81;4840466;29;20074;-67
2022/05/30 06:59:59;;;;;;;4.13;3.10;;;15.90;99.90;;;16.21;51.29;101272.78;4840536;29;20416;-67
2022/05/30 07:02:28;;;;;;;;;;;15.90;99.90;;;15.95;51.20;101272.44;4841846;29;20044;-67
2022/05/30 07:05:09;;;;;;;3.35;2.83;;;15.80;99.90;;;15.47;51.93;101246.69;4841720;29;20228;-67
2022/05/30 07:07:58;;;;;;;4.82;3.30;;;15.40;99.90;;;15.92;51.84;101277.81;4841934;29;20060;-67
2022/05/30 07:10:45;;;;;;;4.93;3.13;;;15.60;99.90;;;16.12;52.09;101267.66;4841635;29;20196;-67
2022/05/30 07:13:17;;;;;;;7.95;3.40;;;15.80;99.90;;;16.03;51.78;101260.69;4841628;29;20046;-67
2022/05/30 07:15:48;;;;;;;10.00;3.83;;;15.80;99.90;;;15.87;52.30;101271.72;4839924;29;20129;-67
2022/05/30 07:18:31;;;;;;;7.32;3.30;;;15.60;99.90;;;15.65;52.55;101270.34;4840064;29;20453;-67
2022/05/30 07:21:04;;;;;;;7.25;3.33;;;15.30;99.90;;;15.81;51.80;101277.16;4839925;29;20056;-67
2022/05/30 07:23:34;;;;;;;8.13;3.55;;;15.50;99.90;;;15.88;52.93;101273.47;4841463;29;20165;-67
2022/05/30 07:26:22;;;;;;;7.28;3.65;;;15.50;99.90;;;15.57;54.25;101266.94;4841099;29;20110;-67
2022/05/30 07:29:11;;;;;;;8.05;3.45;;;15.40;99.90;;;15.65;54.87;101273.03;4841427;29;20077;-67
2022/05/30 07:31:59;;;;;;;5.72;3.67;;;15.30;99.90;;;15.53;55.05;101263.47;4841113;29;20186;-67
2022/05/30 07:34:46;;;;;;;7.70;3.97;;;15.20;99.90;;;15.49;56.42;101266.19;4841131;29;20065;-69
2022/05/30 07:37:50;;;;;;;9.80;3.50;;;15.20;99.90;;;15.26;57.85;101266.56;4820569;29;20058;-69
2022/05/30 07:40:26;;;;;;;7.50;3.78;;;15.00;99.90;;;15.14;57.67;101246.34;4821889;29;20054;-68
2022/05/30 07:43:16;;;;;;;7.00;3.65;;;15.00;99.90;;;15.36;57.93;101261.06;4840963;29;20076;-68
2022/05/30 07:45:48;;;;;;;6.35;4.07;;;15.20;99.90;;;15.47;57.91;101266.22;4841221;29;20166;-68
2022/05/30 07:48:29;;;;;;;6.82;3.60;;;15.30;99.90;;;15.52;58.50;101266.16;4824365;29;20129;-68
2022/05/30 07:51:12;;;;;;;5.40;3.85;;;15.30;99.90;;;15.25;58.32;101255.03;4839505;29;20046;-67
2022/05/30 07:53:54;;;;;;;8.05;3.50;;;15.10;99.90;;;15.36;55.93;101257.53;4839996;29;20054;-67
2022/05/30 07:56:28;;;;;;;8.90;3.85;;;15.10;99.90;;;15.30;56.83;101260.28;4840804;29;20045;-66
2022/05/30 07:58:58;;;;;;;4.82;3.13;;;15.00;99.90;;;15.29;54.22;101267.41;4839838;29;20077;-67
2022/05/30 08:01:28;;;;;;;4.72;3.53;;;15.10;99.90;;;15.13;55.35;101259.72;4839906;29;20053;-67
2022/05/30 08:03:57;;;;;;;6.27;3.70;;;14.90;99.90;;;15.08;55.72;101265.09;4824460;29;20461;-67
2022/05/30 08:06:37;;;;;;;12.25;4.15;;;14.80;99.90;;;15.16;56.54;101262.31;4841096;29;20050;-67
2022/05/30 08:09:30;;;;;;;8.25;4.32;;;14.90;99.90;;;15.21;56.91;101258.66;4840648;29;20465;-67
2022/05/30 08:12:07;;;;;;;6.93;3.17;;;14.90;99.90;;;15.23;55.94;101263.97;4824329;29;20069;-68
2022/05/30 08:14:54;;;;;;;8.82;3.90;;;15.00;99.90;;;15.01;56.79;101198.63;4840538;29;20130;-66
2022/05/30 08:17:26;;;;;;;5.63;4.05;;;15.10;99.90;;;15.64;55.66;101265.94;4840581;29;20141;-67
2022/05/30 08:19:55;;;;;;;8.07;3.75;;;15.30;99.90;;;15.59;55.10;101274.03;4824455;29;20082;-68
2022/05/30 08:22:33;;;;;;;4.80;3.28;;;15.30;99.90;;;15.41;55.33;101249.47;4824386;29;20050;-71
2022/05/30 08:25:04;;;;;;;9.27;4.50;;;15.30;99.90;;;15.64;55.77;101274.81;4840660;29;20465;-70
2022/05/30 08:27:33;;;;;;;4.80;3.60;;;15.30;99.90;;;15.51;53.63;101278.59;4840866;29;20058;-67
2022/05/30 08:30:06;;;;;;;4.65;3.63;;;15.20;99.90;;;15.75;53.14;101271.94;4827475;29;20068;-68
2022/05/30 08:32:42;;;;;;;8.75;4.32;;;15.40;99.90;;;15.87;53.32;101277.06;4843129;29;20062;-68
2022/05/30 08:35:28;;;;;;;10.57;3.40;;;15.50;99.90;;;16.04;52.77;101289.16;4843936;29;20064;-68
2022/05/30 08:37:58;;;;;;;6.05;3.53;;;15.70;99.90;;;16.00;53.31;101283.91;4827228;29;20060;-67
2022/05/30 08:43:28;;;;;;;4.93;3.35;;;15.70;99.90;;;16.08;52.49;101284.63;4842485;29;20145;-66
2022/05/30 08:46:09;;;;;;;3.88;3.17;;;15.80;99.90;;;16.41;52.04;101281.25;4827479;29;20109;-67
2022/05/30 08:48:59;;;;;;;6.72;3.10;;;16.00;99.90;;;16.72;52.69;101274.34;4843049;29;20062;-67
2022/05/30 08:52:03;;;;;;;6.80;3.45;;;16.30;99.90;;;16.78;51.37;101255.47;4843817;29;20076;-67
2022/05/30 08:54:47;;;;;;;6.45;4.05;;;16.60;99.90;;;17.02;49.80;101286.09;4827256;29;20053;-67
2022/05/30 08:57:51;;;;;;;7.47;3.60;;;16.70;99.90;;;16.91;50.70;101278.34;4841581;29;20136;-66
2022/05/30 09:00:27;;;;;;;4.90;3.03;;;16.70;99.90;;;16.77;50.14;101290.25;4827473;29;20054;-67
2022/05/30 09:03:37;;;;;;;6.68;3.67;;;16.50;99.90;;;16.82;50.10;101283.88;4823116;29;20058;-67
2022/05/30 09:06:21;;;;;;;7.53;3.42;;;16.60;99.90;;;16.69;50.11;101287.75;4824587;29;20046;-67
2022/05/30 09:08:55;;;;;;;6.10;3.45;;;16.50;99.90;;;16.63;50.74;101293.25;4842696;29;20054;-67
2022/05/30 09:11:48;;;;;;;6.30;4.00;;;16.40;99.90;;;16.33;52.28;101293.00;4843496;29;20619;-66
2022/05/30 09:14:29;;;;;;;9.13;3.70;;;16.10;99.90;;;16.26;52.51;101302.91;4842641;29;20095;-67
2022/05/30 09:17:04;;;;;;;7.85;3.47;;;16.00;99.90;;;16.43;51.99;101295.47;4827455;29;20058;-67
2022/05/30 09:19:33;;;;;;;5.82;3.85;;;16.10;99.90;;;16.32;51.13;101297.44;4842587;29;20049;-67
2022/05/30 09:22:05;;;;;;;5.13;3.58;;;16.10;99.90;;;15.91;50.89;101209.38;4827158;29;20053;-67
2022/05/30 09:25:55;;;;;;;7.03;3.30;;;16.10;99.90;;;16.45;50.03;101296.31;4842891;29;20374;-67
2022/05/30 09:27:37;;;;;;;6.47;3.55;;;16.20;99.90;;;16.23;50.13;101303.00;4842225;29;20042;-67
2022/05/30 09:30:32;;;;;;;7.82;3.58;;;16.00;99.90;;;16.04;51.57;101299.84;4843081;29;20061;-67
2022/05/30 09:33:36;;;;;;;6.13;3.28;;;15.80;99.90;;;16.00;50.97;101299.91;4843100;29;20138;-66
2022/05/30 09:36:48;;;;;;;8.18;3.30;;;15.80;99.90;;;15.98;50.93;101280.38;4802679;29;20058;-67
2022/05/30 09:39:48;;;;;;;7.28;3.60;;;15.90;99.90;;;16.09;51.73;101310.41;4826137;29;20042;-67
2022/05/30 09:42:30;;;;;;;6.57;3.05;;;15.80;99.90;;;16.07;51.51;101302.41;4842156;29;20360;-67
2022/05/30 09:45:12;;;;;;;6.95;3.80;;;15.80;99.90;;;16.24;50.78;101307.41;4841853;29;20057;-67
2022/05/30 09:48:01;;;;;;;5.80;3.80;;;15.80;99.90;;;16.39;50.44;101303.56;4843342;29;20254;-67
2022/05/30 09:50:44;;;;;;;6.32;3.42;;;16.00;99.90;;;16.54;50.11;101303.25;4826431;29;20061;-67
2022/05/30 09:53:14;;;;;;;9.25;3.42;;;16.20;99.90;;;16.43;51.54;101302.59;4826459;29;20504;-67
2022/05/30 09:55:48;;;;;;;3.88;2.70;;;16.10;99.90;;;16.59;50.86;101306.72;4842558;29;20073;-67
2022/05/30 09:58:44;;;;;;;5.82;3.20;;;16.30;99.90;;;16.58;50.51;101310.28;4823078;29;20108;-67
2022/05/30 10:01:35;;;;;;;6.03;3.40;;;16.20;99.90;;;16.53;50.74;101307.72;4838423;29;20049;-66
2022/05/30 10:04:18;;;;;;;9.10;4.00;;;16.20;99.90;;;16.58;49.23;101305.84;4838371;29;20054;-67
2022/05/30 10:07:11;;;;;;;7.88;3.10;;;16.30;99.90;;;16.65;48.96;101312.78;4838219;29;20161;-67
2022/05/30 10:09:57;;;;;;;4.28;3.30;;;16.30;99.90;;;16.77;50.04;101306.28;4824392;29;20050;-66
2022/05/30 10:12:36;;;;;;;5.20;3.45;;;16.40;99.90;;;16.78;50.08;101306.25;4838139;29;20066;-67
2022/05/30 10:15:26;;;;;;;6.00;3.40;;;16.40;99.90;;;16.88;50.22;101306.91;4838309;29;20137;-67
2022/05/30 10:18:26;;;;;;;6.43;3.45;;;16.50;99.90;;;16.53;51.31;101309.53;4823061;29;20122;-67
2022/05/30 10:21:09;;;;;;;5.93;3.40;;;16.30;99.90;;;16.64;50.78;101313.72;4838131;29;20057;-67
2022/05/30 10:30:40;;;;;;;9.98;3.72;;;16.20;99.90;;;16.17;52.20;101329.81;4824336;29;20168;-67
2022/05/30 10:34:19;;;;;;;5.43;3.55;;;15.90;99.90;;;16.46;51.43;101321.19;4837790;29;20046;-66
2022/05/30 10:37:02;;;;;;;4.78;3.42;;;16.00;99.90;;;16.63;51.57;101313.72;4822362;29;20098;-67
2022/05/30 10:40:00;;;;;;;6.78;3.53;;;16.20;99.90;;;16.73;51.07;101328.66;4822581;29;20114;-67
2022/05/30 10:42:37;;;;;;;6.75;3.53;;;16.40;99.90;;;16.82;50.70;101331.13;4837771;29;20058;-67
2022/05/30 10:45:12;;;;;;;6.72;3.67;;;16.50;99.90;;;16.98;50.79;101332.50;4822592;29;20137;-67
2022/05/30 10:47:46;;;;;;;5.32;3.70;;;16.60;99.90;;;17.15;50.87;101327.66;4837888;29;20046;-67
2022/05/30 10:50:22;;;;;;;7.90;3.92;;;16.80;99.90;;;17.15;50.01;101331.22;4822315;29;20069;-67
2022/05/30 10:52:58;;;;;;;4.95;3.33;;;16.80;99.90;;;17.06;49.50;101325.19;4837734;29;20069;-67
2022/05/30 10:55:51;;;;;;;5.63;3.95;;;16.70;99.90;;;17.26;49.19;101332.75;4822104;29;20145;-67
2022/05/30 10:58:30;;;;;;;7.45;3.58;;;16.90;99.90;;;17.40;48.29;101335.97;4837036;29;20489;-67
2022/05/30 11:01:04;;;;;;;6.70;3.78;;;17.10;99.90;;;17.53;48.01;101327.63;4824015;29;20099;-67
2022/05/30 11:03:42;;;;;;;7.75;4.00;;;17.20;99.90;;;17.54;47.85;101324.03;4837040;29;20054;-67
2022/05/30 11:06:23;;;;;;;5.85;3.53;;;17.30;99.90;;;17.70;47.27;101340.56;4837252;29;20054;-67
2022/05/30 11:09:16;;;;;;;6.40;3.55;;;17.40;99.90;;;17.77;47.29;101339.47;4837302;29;20050;-68
2022/05/30 11:11:50;;;;;;;6.55;3.50;;;17.50;99.90;;;17.89;45.78;101333.81;4837049;29;20087;-67